Time;durP1;ratioP1;P1;durP2;ratioP2;P2;SDS_P1;SDS_P2;PMS_P1;PMS_P2;Temp;Humidity;BMP_temperature;BMP_pressure;BME280_temperature;BME280_humidity;BME280_pressure;Samples;Min_cycle;Max_cycle;Signal;HPM_P1;HPM_P2
2023/12/25 00:00:53;;;;;;;;;;;9.20;77.80;;;;;;5121820;23;19904;-87
2023/12/25 00:02:54;;;;;;;;;;;9.10;77.50;;;;;;5167806;23;19935;-86
2023/12/25 00:04:54;;;;;;;;;;;9.10;77.90;;;;;;5142650;23;20872;-86
2023/12/25 00:06:55;;;;;;;;;;;9.10;78.20;;;;;;5165897;23;19912;-85
2023/12/25 00:09:17;;;;;;;;;;;9.10;78.30;;;;;;5175432;23;20193;-84
2023/12/25 00:11:37;;;;;;;;;;;9.10;78.30;;;;;;5173116;23;20007;-85
2023/12/25 00:13:57;;;;;;;;;;;9.10;78.50;;;;;;5175132;23;19907;-86
2023/12/25 00:16:00;;;;;;;;;;;9.10;78.80;;;;;;5148841;23;19973;-85
2023/12/25 00:18:20;;;;;;;;;;;9.10;79.50;;;;;;5173487;23;19928;-84
2023/12/25 00:20:21;;;;;;;;;;;9.00;78.90;;;;;;5149298;23;20485;-85
2023/12/25 00:22:42;;;;;;;;;;;9.00;78.90;;;;;;5173217;23;19907;-85
2023/12/25 00:25:02;;;;;;;;;;;9.00;78.90;;;;;;5173319;23;19904;-86
2023/12/25 00:27:23;;;;;;;;;;;8.90;78.70;;;;;;5151464;23;19908;-87
2023/12/25 00:29:44;;;;;;;;;;;8.90;78.80;;;;;;5174612;23;19910;-86
2023/12/25 00:32:04;;;;;;;;;;;9.00;79.00;;;;;;5173115;22;19907;-84
2023/12/25 00:34:25;;;;;;;;;;;8.90;79.10;;;;;;5177679;23;19916;-86
2023/12/25 00:36:45;;;;;;;;;;;8.90;79.10;;;;;;5175211;23;19899;-84
2023/12/25 00:39:06;;;;;;;;;;;8.90;79.10;;;;;;5174465;23;19908;-85
2023/12/25 00:41:31;;;;;;;;;;;8.90;79.10;;;;;;5173054;23;19956;-86
2023/12/25 00:43:51;;;;;;;;;;;8.90;78.90;;;;;;5176226;23;19915;-85
2023/12/25 00:46:12;;;;;;;;;;;8.90;78.80;;;;;;5173941;23;19919;-84
2023/12/25 00:48:12;;;;;;;;;;;9.00;78.90;;;;;;5171394;23;19911;-86
2023/12/25 00:50:13;;;;;;;;;;;8.90;79.00;;;;;;5146079;23;19949;-86
2023/12/25 00:52:17;;;;;;;;;;;8.90;79.10;;;;;;5171188;23;19973;-84
2023/12/25 00:54:18;;;;;;;;;;;8.90;79.30;;;;;;5175115;23;19950;-86
2023/12/25 00:56:19;;;;;;;;;;;8.90;79.60;;;;;;5176166;23;19900;-85
2023/12/25 00:58:20;;;;;;;;;;;8.90;79.60;;;;;;5146766;23;19954;-86
2023/12/25 01:00:23;;;;;;;;;;;9.00;79.70;;;;;;5146011;23;19946;-85
2023/12/25 01:02:43;;;;;;;;;;;8.90;79.40;;;;;;5151543;23;19908;-84
2023/12/25 01:05:04;;;;;;;;;;;8.90;79.40;;;;;;5174412;23;19914;-85
2023/12/25 01:07:25;;;;;;;;;;;8.90;79.30;;;;;;5173773;23;19942;-85
2023/12/25 01:09:45;;;;;;;;;;;8.90;79.30;;;;;;5173098;23;19915;-85
2023/12/25 01:12:06;;;;;;;;;;;8.90;79.30;;;;;;5150070;23;19904;-85
2023/12/25 01:14:26;;;;;;;;;;;8.90;79.30;;;;;;5171855;23;19951;-86
2023/12/25 01:16:47;;;;;;;;;;;8.90;79.60;;;;;;5150021;23;19908;-85
2023/12/25 01:19:07;;;;;;;;;;;8.90;79.80;;;;;;5172160;23;19915;-86
2023/12/25 01:21:29;;;;;;;;;;;9.00;80.10;;;;;;5170703;23;19955;-85
2023/12/25 01:23:49;;;;;;;;;;;8.90;80.20;;;;;;5148851;23;19912;-86
2023/12/25 01:25:50;;;;;;;;;;;8.90;80.60;;;;;;5174679;23;19922;-85
2023/12/25 01:27:50;;;;;;;;;;;8.90;80.80;;;;;;5123810;23;19976;-85
2023/12/25 01:29:51;;;;;;;;;;;8.80;80.80;;;;;;5147322;23;19964;-86
2023/12/25 01:32:11;;;;;;;;;;;8.80;80.70;;;;;;5173210;22;19919;-87
2023/12/25 01:34:12;;;;;;;;;;;8.80;80.60;;;;;;5146701;23;20017;-87
2023/12/25 01:36:12;;;;;;;;;;;8.90;80.90;;;;;;5173985;23;19934;-85
2023/12/25 01:38:33;;;;;;;;;;;8.80;81.00;;;;;;5150190;23;19908;-85
2023/12/25 01:40:53;;;;;;;;;;;8.80;81.10;;;;;;5169973;23;19908;-85
2023/12/25 01:43:14;;;;;;;;;;;8.70;81.10;;;;;;5174024;23;19910;-85
2023/12/25 01:45:35;;;;;;;;;;;8.80;81.20;;;;;;5171541;23;19942;-86
2023/12/25 01:47:55;;;;;;;;;;;8.70;81.10;;;;;;5170628;23;19911;-87
2023/12/25 01:50:16;;;;;;;;;;;8.70;81.10;;;;;;5139807;23;19907;-86
2023/12/25 01:52:37;;;;;;;;;;;8.70;81.10;;;;;;5162731;23;20026;-86
2023/12/25 01:54:58;;;;;;;;;;;8.60;81.00;;;;;;5159137;23;19981;-84
2023/12/25 01:56:58;;;;;;;;;;;8.60;81.80;;;;;;5135007;23;19904;-86
2023/12/25 01:58:59;;;;;;;;;;;8.70;81.20;;;;;;5135580;23;19973;-87
2023/12/25 02:00:59;;;;;;;;;;;8.60;81.30;;;;;;5136160;23;20237;-86
2023/12/25 02:03:00;;;;;;;;;;;8.60;81.40;;;;;;5163648;23;19979;-85
2023/12/25 02:05:01;;;;;;;;;;;8.60;81.60;;;;;;5136912;23;19930;-87
2023/12/25 02:07:03;;;;;;;;;;;8.70;81.50;;;;;;5136582;23;19908;-85
2023/12/25 02:09:24;;;;;;;;;;;8.60;81.10;;;;;;5163298;23;19931;-87
2023/12/25 02:11:44;;;;;;;;;;;8.50;80.90;;;;;;5159022;23;19904;-86
2023/12/25 02:14:05;;;;;;;;;;;8.50;80.80;;;;;;5139711;23;19958;-86
2023/12/25 02:16:07;;;;;;;;;;;8.50;80.70;;;;;;5162538;23;19907;-85
2023/12/25 02:18:27;;;;;;;;;;;8.50;80.80;;;;;;5161454;23;20041;-85
2023/12/25 02:20:48;;;;;;;;;;;8.40;80.80;;;;;;5142233;23;19900;-87
2023/12/25 02:23:10;;;;;;;;;;;8.40;81.00;;;;;;5161962;23;20011;-85
2023/12/25 02:25:36;;;;;;;;;;;8.40;81.00;;;;;;5162253;23;19903;-85
2023/12/25 02:27:57;;;;;;;;;;;8.40;81.00;;;;;;5161986;23;19900;-85
2023/12/25 02:30:18;;;;;;;;;;;8.50;81.20;;;;;;5162531;22;19930;-85
2023/12/25 02:32:40;;;;;;;;;;;8.40;81.20;;;;;;5164614;23;19982;-86
2023/12/25 02:35:01;;;;;;;;;;;8.30;81.10;;;;;;5165402;23;19982;-86
2023/12/25 02:37:22;;;;;;;;;;;8.40;81.30;;;;;;5164862;23;19907;-87
2023/12/25 02:39:42;;;;;;;;;;;8.30;81.10;;;;;;5164491;23;19907;-86
2023/12/25 02:41:43;;;;;;;;;;;8.20;80.90;;;;;;5135625;23;20015;-85
2023/12/25 02:43:43;;;;;;;;;;;8.30;81.00;;;;;;5162339;23;19910;-86
2023/12/25 02:45:48;;;;;;;;;;;8.20;80.70;;;;;;5137618;23;20662;-85
2023/12/25 02:48:09;;;;;;;;;;;8.30;80.70;;;;;;5164767;23;19904;-85
2023/12/25 02:50:29;;;;;;;;;;;8.20;80.30;;;;;;5163735;23;19911;-85
2023/12/25 02:52:50;;;;;;;;;;;8.30;80.10;;;;;;5164535;23;19903;-87
2023/12/25 02:55:10;;;;;;;;;;;8.20;79.90;;;;;;5166802;23;19915;-85
2023/12/25 02:57:31;;;;;;;;;;;8.20;79.80;;;;;;5162990;23;19907;-86
2023/12/25 02:59:51;;;;;;;;;;;8.20;79.60;;;;;;5161347;23;19907;-85
2023/12/25 03:02:12;;;;;;;;;;;8.10;79.40;;;;;;5165351;23;19908;-85
2023/12/25 03:04:29;;;;;;;;;;;8.10;79.20;;;;;;5136566;23;19958;-86
2023/12/25 03:06:49;;;;;;;;;;;8.20;79.70;;;;;;5162960;23;20006;-86
2023/12/25 03:09:10;;;;;;;;;;;8.00;78.80;;;;;;5162924;23;19904;-84
2023/12/25 03:11:11;;;;;;;;;;;8.00;78.60;;;;;;5137398;23;19994;-85
2023/12/25 03:13:31;;;;;;;;;;;8.00;78.60;;;;;;5162533;23;19911;-85
2023/12/25 03:15:52;;;;;;;;;;;8.10;78.70;;;;;;5162360;23;19907;-86
2023/12/25 03:18:12;;;;;;;;;;;8.00;78.60;;;;;;5163662;23;19907;-85
2023/12/25 03:20:33;;;;;;;;;;;8.00;78.50;;;;;;5165468;23;19907;-86
2023/12/25 03:22:53;;;;;;;;;;;8.00;78.50;;;;;;5166152;23;19907;-85
2023/12/25 03:25:05;;;;;;;;;;;8.00;78.40;;;;;;5140723;23;19914;-86
2023/12/25 03:27:25;;;;;;;;;;;7.90;78.50;;;;;;5143995;23;20312;-85
2023/12/25 03:29:46;;;;;;;;;;;7.90;78.40;;;;;;5143729;23;19903;-85
2023/12/25 03:32:06;;;;;;;;;;;7.90;78.20;;;;;;5163679;22;19915;-85
2023/12/25 03:34:27;;;;;;;;;;;8.00;78.30;;;;;;5145653;23;19911;-84
2023/12/25 03:36:47;;;;;;;;;;;7.90;78.70;;;;;;5166169;23;19951;-85
2023/12/25 03:39:08;;;;;;;;;;;7.90;77.90;;;;;;5166402;23;19914;-85
2023/12/25 03:41:28;;;;;;;;;;;7.90;77.80;;;;;;5164412;23;20358;-84
2023/12/25 03:43:49;;;;;;;;;;;7.90;77.90;;;;;;5167321;23;19999;-85
2023/12/25 03:46:09;;;;;;;;;;;7.90;77.80;;;;;;5165013;23;20259;-84
2023/12/25 03:48:30;;;;;;;;;;;7.90;78.00;;;;;;5168572;23;19926;-86
2023/12/25 03:50:50;;;;;;;;;;;7.80;78.00;;;;;;5144311;23;19903;-85
2023/12/25 03:53:11;;;;;;;;;;;7.90;78.20;;;;;;5143524;23;20003;-85
2023/12/25 03:55:31;;;;;;;;;;;7.80;78.10;;;;;;5164984;23;19972;-86
2023/12/25 03:57:52;;;;;;;;;;;7.80;79.00;;;;;;5165726;23;19938;-86
2023/12/25 04:00:13;;;;;;;;;;;7.90;78.40;;;;;;5165691;23;19915;-84
2023/12/25 04:02:33;;;;;;;;;;;7.80;78.40;;;;;;5169019;23;19908;-84
2023/12/25 04:04:54;;;;;;;;;;;7.80;78.50;;;;;;5163407;23;20003;-85
2023/12/25 04:07:15;;;;;;;;;;;7.90;78.70;;;;;;5171611;23;19951;-85
2023/12/25 04:09:35;;;;;;;;;;;7.80;77.90;;;;;;5173094;23;19907;-86
2023/12/25 04:11:56;;;;;;;;;;;7.90;78.10;;;;;;5144268;23;19914;-85
2023/12/25 04:14:16;;;;;;;;;;;7.70;78.30;;;;;;5165174;23;19995;-85
2023/12/25 04:16:37;;;;;;;;;;;7.70;78.70;;;;;;5164636;23;19983;-85
2023/12/25 04:18:57;;;;;;;;;;;7.70;78.80;;;;;;5165455;23;19907;-85
2023/12/25 04:21:28;;;;;;;;;;;7.60;78.90;;;;;;5164242;23;19904;-86
2023/12/25 04:23:52;;;;;;;;;;;7.50;78.70;;;;;;5139344;23;19954;-85
2023/12/25 04:25:53;;;;;;;;;;;7.60;79.10;;;;;;5163813;23;19918;-85
2023/12/25 04:27:54;;;;;;;;;;;7.60;79.30;;;;;;5165625;23;20244;-85
2023/12/25 04:29:54;;;;;;;;;;;7.60;79.50;;;;;;5164030;23;19908;-85
2023/12/25 04:31:55;;;;;;;;;;;7.60;79.20;;;;;;5165779;23;19915;-86
2023/12/25 04:34:14;;;;;;;;;;;7.60;78.30;;;;;;5137401;23;19911;-85
2023/12/25 04:36:15;;;;;;;;;;;7.60;77.30;;;;;;5162917;23;19908;-85
2023/12/25 04:38:39;;;;;;;;;;;7.60;77.20;;;;;;5159493;23;20395;-85
2023/12/25 04:40:59;;;;;;;;;;;7.60;76.30;;;;;;5161053;23;19914;-85
2023/12/25 04:43:20;;;;;;;;;;;7.50;75.10;;;;;;5164522;23;19908;-85
2023/12/25 04:45:40;;;;;;;;;;;7.50;75.10;;;;;;5166429;23;19943;-85
2023/12/25 04:48:01;;;;;;;;;;;7.50;74.70;;;;;;5167410;23;20003;-85
2023/12/25 04:50:22;;;;;;;;;;;7.50;74.70;;;;;;5167104;23;19912;-84
2023/12/25 04:52:39;;;;;;;;;;;7.50;74.50;;;;;;5118352;23;19991;-85
2023/12/25 04:54:59;;;;;;;;;;;7.50;74.20;;;;;;5165829;23;20002;-84
2023/12/25 04:57:20;;;;;;;;;;;7.50;74.20;;;;;;5145063;23;20400;-85
2023/12/25 04:59:41;;;;;;;;;;;7.40;74.40;;;;;;5166233;23;19904;-84
2023/12/25 05:02:03;;;;;;;;;;;7.40;74.80;;;;;;5142772;23;19900;-85
2023/12/25 05:04:09;;;;;;;;;;;7.40;74.90;;;;;;5140602;23;19935;-86
2023/12/25 05:06:10;;;;;;;;;;;7.30;74.80;;;;;;5166160;23;19907;-85
2023/12/25 05:08:10;;;;;;;;;;;7.30;75.10;;;;;;5166785;23;19904;-84
2023/12/25 05:10:11;;;;;;;;;;;7.30;75.20;;;;;;5163554;23;20306;-84
2023/12/25 05:12:31;;;;;;;;;;;7.30;75.40;;;;;;5141944;23;20709;-84
2023/12/25 05:14:52;;;;;;;;;;;7.20;75.70;;;;;;5164607;23;19982;-86
2023/12/25 05:17:12;;;;;;;;;;;7.20;75.60;;;;;;5166294;23;19914;-86
2023/12/25 05:19:34;;;;;;;;;;;7.20;75.80;;;;;;5144624;23;20376;-86
2023/12/25 05:21:37;;;;;;;;;;;7.20;75.90;;;;;;5114888;23;19905;-85
2023/12/25 05:23:57;;;;;;;;;;;7.10;75.90;;;;;;5166782;23;19911;-85
2023/12/25 05:26:18;;;;;;;;;;;7.10;75.80;;;;;;5142733;23;20170;-84
2023/12/25 05:28:38;;;;;;;;;;;7.20;75.90;;;;;;5165958;23;19904;-85
2023/12/25 05:30:59;;;;;;;;;;;7.10;75.80;;;;;;5166747;22;19907;-85
2023/12/25 05:33:22;;;;;;;;;;;7.00;75.70;;;;;;5164003;23;20389;-85
2023/12/25 05:35:43;;;;;;;;;;;7.10;75.70;;;;;;5143767;23;19950;-83
2023/12/25 05:38:03;;;;;;;;;;;7.00;75.60;;;;;;5165714;23;19997;-85
2023/12/25 05:40:24;;;;;;;;;;;7.00;75.40;;;;;;5165905;23;19904;-85
2023/12/25 05:42:45;;;;;;;;;;;6.90;75.00;;;;;;5163390;23;19954;-83
2023/12/25 05:45:06;;;;;;;;;;;6.90;75.00;;;;;;5168274;23;19900;-87
2023/12/25 05:47:26;;;;;;;;;;;6.90;74.50;;;;;;5165786;23;19967;-84
2023/12/25 05:49:47;;;;;;;;;;;6.80;74.20;;;;;;5168396;23;19973;-85
2023/12/25 05:52:07;;;;;;;;;;;6.80;73.60;;;;;;5146153;23;20272;-85
2023/12/25 05:54:28;;;;;;;;;;;6.80;73.30;;;;;;5166135;23;19973;-84
2023/12/25 05:56:48;;;;;;;;;;;6.80;72.60;;;;;;5145137;23;19987;-85
2023/12/25 05:59:09;;;;;;;;;;;6.80;72.30;;;;;;5165550;23;19906;-84
2023/12/25 06:01:29;;;;;;;;;;;6.80;72.10;;;;;;5168013;23;20465;-85
2023/12/25 06:03:50;;;;;;;;;;;6.70;71.50;;;;;;5167401;23;19911;-86
2023/12/25 06:06:10;;;;;;;;;;;6.70;71.40;;;;;;5144393;23;19904;-85
2023/12/25 06:08:31;;;;;;;;;;;6.70;71.40;;;;;;5142659;23;19931;-85
2023/12/25 06:10:51;;;;;;;;;;;6.70;71.30;;;;;;5163937;23;19900;-85
2023/12/25 06:13:12;;;;;;;;;;;6.70;71.10;;;;;;5163973;23;19918;-85
2023/12/25 06:15:33;;;;;;;;;;;6.70;70.40;;;;;;5165576;23;19908;-85
2023/12/25 06:17:53;;;;;;;;;;;6.70;69.90;;;;;;5173449;23;19935;-85
2023/12/25 06:20:14;;;;;;;;;;;6.70;69.80;;;;;;5165135;23;19907;-86
2023/12/25 06:22:35;;;;;;;;;;;6.60;69.60;;;;;;5166961;23;19904;-84
2023/12/25 06:24:55;;;;;;;;;;;6.60;69.70;;;;;;5143803;23;19906;-84
2023/12/25 06:27:16;;;;;;;;;;;6.60;69.50;;;;;;5143779;23;19947;-85
2023/12/25 06:29:37;;;;;;;;;;;6.60;69.50;;;;;;5144021;23;19903;-83
2023/12/25 06:31:57;;;;;;;;;;;6.50;69.30;;;;;;5166147;23;19937;-84
2023/12/25 06:34:18;;;;;;;;;;;6.50;69.40;;;;;;5144714;23;20295;-85
2023/12/25 06:36:38;;;;;;;;;;;6.50;69.60;;;;;;5163784;23;19975;-85
2023/12/25 06:38:59;;;;;;;;;;;6.50;69.40;;;;;;5164920;23;19981;-85
2023/12/25 06:41:19;;;;;;;;;;;6.40;69.50;;;;;;5163051;23;19926;-84
2023/12/25 06:43:40;;;;;;;;;;;6.40;69.90;;;;;;5160332;23;19907;-83
2023/12/25 06:46:00;;;;;;;;;;;6.40;70.20;;;;;;5138203;23;19916;-84
2023/12/25 06:48:19;;;;;;;;;;;6.40;70.60;;;;;;5167046;23;19918;-84
2023/12/25 06:50:40;;;;;;;;;;;6.40;71.70;;;;;;5165260;23;19915;-85
2023/12/25 06:53:20;;;;;;;;;;;6.40;71.10;;;;;;5144202;23;19989;-85
2023/12/25 06:55:40;;;;;;;;;;;6.30;71.30;;;;;;5166400;23;19930;-84
2023/12/25 06:57:59;;;;;;;;;;;6.30;71.50;;;;;;5163518;23;19934;-84
2023/12/25 07:00:18;;;;;;;;;;;6.40;71.70;;;;;;5165857;23;20448;-85
2023/12/25 07:02:38;;;;;;;;;;;6.30;71.80;;;;;;5144716;23;19914;-85
2023/12/25 07:04:57;;;;;;;;;;;6.40;71.80;;;;;;5165630;23;19915;-84
2023/12/25 07:07:16;;;;;;;;;;;6.30;71.60;;;;;;5163488;23;20510;-83
2023/12/25 07:09:35;;;;;;;;;;;6.20;71.40;;;;;;5164587;23;20463;-84
2023/12/25 07:11:55;;;;;;;;;;;6.30;71.30;;;;;;5168278;23;19914;-84
2023/12/25 07:14:14;;;;;;;;;;;6.20;71.40;;;;;;5146278;23;19979;-84
2023/12/25 07:16:33;;;;;;;;;;;6.20;70.70;;;;;;5167636;23;19913;-85
2023/12/25 07:18:53;;;;;;;;;;;6.20;70.00;;;;;;5167730;23;20134;-86
2023/12/25 07:21:12;;;;;;;;;;;6.20;69.80;;;;;;5167700;23;19915;-85
2023/12/25 07:24:03;;;;;;;;;;;;;;;;;;;;;
2023/12/25 07:26:23;;;;;;;;;;;6.10;69.30;;;;;;5166989;23;19934;-84
2023/12/25 07:28:42;;;;;;;;;;;6.10;69.00;;;;;;5167095;23;19914;-84
2023/12/25 07:31:02;;;;;;;;;;;6.20;68.90;;;;;;5163001;22;19922;-85
2023/12/25 07:33:21;;;;;;;;;;;6.10;68.70;;;;;;5165568;23;20247;-85
2023/12/25 07:35:40;;;;;;;;;;;6.10;68.10;;;;;;5168219;23;19907;-85
2023/12/25 07:38:00;;;;;;;;;;;6.10;67.40;;;;;;5167758;23;19930;-82
2023/12/25 07:40:19;;;;;;;;;;;6.10;67.10;;;;;;5167272;23;19910;-85
2023/12/25 07:42:49;;;;;;;;;;;6.10;66.80;;;;;;5167147;23;19907;-84
2023/12/25 07:45:11;;;;;;;;;;;6.10;67.60;;;;;;5168996;23;19963;-84
2023/12/25 07:47:30;;;;;;;;;;;6.10;66.60;;;;;;5165168;23;19934;-84
2023/12/25 07:49:49;;;;;;;;;;;6.10;66.80;;;;;;5166504;23;19910;-84
2023/12/25 07:52:09;;;;;;;;;;;6.00;66.70;;;;;;5144524;23;20433;-85
2023/12/25 07:54:28;;;;;;;;;;;6.10;66.70;;;;;;5166583;23;19911;-85
2023/12/25 07:56:47;;;;;;;;;;;6.10;66.90;;;;;;5163691;23;19911;-85
2023/12/25 07:59:07;;;;;;;;;;;6.10;67.10;;;;;;5166478;23;19953;-85
2023/12/25 08:01:26;;;;;;;;;;;6.20;67.20;;;;;;5164808;23;20334;-83
2023/12/25 08:03:45;;;;;;;;;;;6.00;67.10;;;;;;5167315;23;20349;-87
2023/12/25 08:06:05;;;;;;;;;;;6.00;67.30;;;;;;5166608;23;19914;-84
2023/12/25 08:08:24;;;;;;;;;;;6.00;67.80;;;;;;5168129;23;19946;-85
2023/12/25 08:10:43;;;;;;;;;;;6.00;67.10;;;;;;5164905;23;19906;-83
2023/12/25 08:13:03;;;;;;;;;;;6.00;67.40;;;;;;5165694;23;19989;-83
2023/12/25 08:15:22;;;;;;;;;;;6.00;66.80;;;;;;5166248;23;20119;-84
2023/12/25 08:17:42;;;;;;;;;;;6.00;66.60;;;;;;5164849;23;19915;-86
2023/12/25 08:20:02;;;;;;;;;;;6.00;66.70;;;;;;5166360;23;19950;-85
2023/12/25 08:22:21;;;;;;;;;;;6.00;66.60;;;;;;5166155;23;19914;-85
2023/12/25 08:24:42;;;;;;;;;;;6.10;66.80;;;;;;5167347;23;19969;-86
2023/12/25 08:27:03;;;;;;;;;;;6.10;66.70;;;;;;5164980;23;19934;-85
2023/12/25 08:29:24;;;;;;;;;;;6.00;66.70;;;;;;5163942;23;19993;-84
2023/12/25 08:31:44;;;;;;;;;;;6.10;66.80;;;;;;5137739;23;20013;-84
2023/12/25 08:34:09;;;;;;;;;;;6.10;66.80;;;;;;5163515;23;19911;-83
2023/12/25 08:36:28;;;;;;;;;;;6.10;66.80;;;;;;5162014;23;19953;-85
2023/12/25 08:39:04;;;;;;;;;;;6.10;67.60;;;;;;5163142;23;19915;-85
2023/12/25 08:41:23;;;;;;;;;;;6.10;66.80;;;;;;5162599;23;19930;-85
2023/12/25 08:43:43;;;;;;;;;;;6.00;66.60;;;;;;5164657;23;19915;-85
2023/12/25 08:46:05;;;;;;;;;;;6.00;66.70;;;;;;5163602;23;19983;-86
2023/12/25 08:48:24;;;;;;;;;;;6.00;66.80;;;;;;5164397;23;19914;-83
2023/12/25 08:50:44;;;;;;;;;;;6.10;67.10;;;;;;5141294;23;20314;-84
2023/12/25 08:53:03;;;;;;;;;;;6.10;67.30;;;;;;5163913;23;19931;-85
2023/12/25 08:55:22;;;;;;;;;;;6.10;67.60;;;;;;5142752;23;19983;-84
2023/12/25 08:57:44;;;;;;;;;;;6.10;67.80;;;;;;5165959;23;20005;-85
2023/12/25 09:00:17;;;;;;;;;;;6.10;68.10;;;;;;5164788;23;19937;-85
2023/12/25 09:02:37;;;;;;;;;;;6.10;68.20;;;;;;5164866;23;19910;-82
2023/12/25 09:04:56;;;;;;;;;;;6.10;68.50;;;;;;5163619;23;19910;-84
2023/12/25 09:07:16;;;;;;;;;;;6.10;69.30;;;;;;5163470;23;19971;-86
2023/12/25 09:09:38;;;;;;;;;;;6.10;69.20;;;;;;5165127;23;19914;-87
2023/12/25 09:12:00;;;;;;;;;;;6.10;68.50;;;;;;5163817;23;19919;-85
2023/12/25 09:14:20;;;;;;;;;;;6.10;68.60;;;;;;5164381;23;19934;-88
2023/12/25 09:16:39;;;;;;;;;;;6.10;68.20;;;;;;5166051;23;19915;-86
2023/12/25 09:18:59;;;;;;;;;;;6.20;68.40;;;;;;5165169;23;19914;-85
2023/12/25 09:21:18;;;;;;;;;;;6.20;68.30;;;;;;5142914;23;19915;-86
2023/12/25 09:23:37;;;;;;;;;;;6.20;68.30;;;;;;5162142;23;19975;-86
2023/12/25 09:25:59;;;;;;;;;;;6.20;69.00;;;;;;5162916;23;19980;-85
2023/12/25 09:28:25;;;;;;;;;;;6.20;68.30;;;;;;5166072;23;19917;-85
2023/12/25 09:30:44;;;;;;;;;;;6.30;68.50;;;;;;5163366;22;19922;-85
2023/12/25 09:33:03;;;;;;;;;;;6.30;68.20;;;;;;5165788;23;19911;-85
2023/12/25 09:35:22;;;;;;;;;;;6.30;68.30;;;;;;5165382;23;19918;-86
2023/12/25 09:37:42;;;;;;;;;;;6.30;67.80;;;;;;5165894;23;20185;-85
2023/12/25 09:40:01;;;;;;;;;;;6.40;68.00;;;;;;5142885;23;19967;-88
2023/12/25 09:42:21;;;;;;;;;;;6.30;67.30;;;;;;5168081;23;19918;-86
2023/12/25 09:44:40;;;;;;;;;;;6.30;67.80;;;;;;5168759;23;20569;-85
2023/12/25 09:46:59;;;;;;;;;;;6.40;67.00;;;;;;5166970;23;19918;-86
2023/12/25 09:49:20;;;;;;;;;;;6.40;66.70;;;;;;5143785;23;19915;-87
2023/12/25 09:51:45;;;;;;;;;;;6.40;66.80;;;;;;5143522;23;19914;-85
2023/12/25 09:54:04;;;;;;;;;;;6.40;66.60;;;;;;5168346;23;19914;-87
2023/12/25 09:56:24;;;;;;;;;;;6.50;66.70;;;;;;5167260;23;20030;-86
2023/12/25 09:58:43;;;;;;;;;;;6.40;66.90;;;;;;5169792;23;19979;-86
2023/12/25 10:01:02;;;;;;;;;;;6.40;67.50;;;;;;5165500;23;19938;-87
2023/12/25 10:03:23;;;;;;;;;;;6.40;66.70;;;;;;5168588;23;20015;-86
2023/12/25 10:05:43;;;;;;;;;;;6.50;66.80;;;;;;5146110;23;19968;-86
2023/12/25 10:08:02;;;;;;;;;;;6.50;66.80;;;;;;5167623;23;19995;-86
2023/12/25 10:10:31;;;;;;;;;;;6.40;66.60;;;;;;5164146;23;20081;-86
2023/12/25 10:12:50;;;;;;;;;;;6.50;66.80;;;;;;5163417;23;19914;-84
2023/12/25 10:15:09;;;;;;;;;;;6.50;66.70;;;;;;5163146;23;19915;-84
2023/12/25 10:17:36;;;;;;;;;;;6.50;66.70;;;;;;5161924;23;19979;-85
2023/12/25 10:19:58;;;;;;;;;;;6.50;66.50;;;;;;5140413;23;19915;-86
2023/12/25 10:22:31;;;;;;;;;;;6.50;67.40;;;;;;5162694;23;19965;-86
2023/12/25 10:25:03;;;;;;;;;;;6.50;67.30;;;;;;5164047;23;19915;-84
2023/12/25 10:27:28;;;;;;;;;;;6.50;67.10;;;;;;5162461;23;19922;-86
2023/12/25 10:29:52;;;;;;;;;;;6.50;66.00;;;;;;5162478;23;20003;-85
2023/12/25 10:32:18;;;;;;;;;;;6.50;65.90;;;;;;5159522;22;19922;-86
2023/12/25 10:34:37;;;;;;;;;;;6.60;66.20;;;;;;5135166;23;20361;-83
2023/12/25 10:37:01;;;;;;;;;;;6.60;65.70;;;;;;5161789;23;19942;-85
2023/12/25 10:39:30;;;;;;;;;;;6.60;65.50;;;;;;5160832;23;20282;-85
2023/12/25 10:41:50;;;;;;;;;;;6.60;65.30;;;;;;5137637;23;19914;-86
2023/12/25 10:44:10;;;;;;;;;;;6.60;65.50;;;;;;5141476;23;19908;-86
2023/12/25 10:46:35;;;;;;;;;;;6.60;65.30;;;;;;5164047;23;19914;-86
2023/12/25 10:48:56;;;;;;;;;;;6.60;65.20;;;;;;5140645;23;20062;-86
2023/12/25 10:51:20;;;;;;;;;;;6.60;65.30;;;;;;5159085;23;20017;-84
2023/12/25 10:53:39;;;;;;;;;;;6.70;65.40;;;;;;5164364;23;19954;-86
2023/12/25 10:55:58;;;;;;;;;;;6.70;65.30;;;;;;5161810;23;19914;-84
2023/12/25 10:58:19;;;;;;;;;;;6.70;65.00;;;;;;5158236;23;19914;-83
2023/12/25 11:15:35;;;;;;;;;;;6.60;65.80;;;;;;5158727;22;20546;-83
2023/12/25 11:17:58;;;;;;;;;;;6.60;65.80;;;;;;5188952;22;19914;-84
2023/12/25 11:20:18;;;;;;;;;;;6.60;66.10;;;;;;5188267;22;19915;-86
2023/12/25 11:22:39;;;;;;;;;;;6.60;67.00;;;;;;5139852;23;20414;-85
2023/12/25 11:24:59;;;;;;;;;;;6.60;66.40;;;;;;5163895;23;19915;-85
2023/12/25 11:27:19;;;;;;;;;;;6.60;66.40;;;;;;5161438;23;20445;-85
2023/12/25 11:29:38;;;;;;;;;;;6.60;66.60;;;;;;5138045;23;19915;-82
2023/12/25 11:32:06;;;;;;;;;;;6.60;66.30;;;;;;5162855;23;20196;-86
2023/12/25 11:34:32;;;;;;;;;;;6.60;66.00;;;;;;5139774;23;19923;-83
2023/12/25 11:36:56;;;;;;;;;;;6.60;66.20;;;;;;5142444;23;20403;-84
2023/12/25 11:39:16;;;;;;;;;;;6.60;66.40;;;;;;5163983;23;19934;-86
2023/12/25 11:41:37;;;;;;;;;;;6.70;66.60;;;;;;5140425;23;20396;-85
2023/12/25 11:44:14;;;;;;;;;;;6.70;66.50;;;;;;5143566;23;19904;-86
2023/12/25 11:46:36;;;;;;;;;;;6.70;66.30;;;;;;5141310;23;20239;-84
2023/12/25 11:49:00;;;;;;;;;;;6.70;66.30;;;;;;5137886;23;19962;-84
2023/12/25 11:51:21;;;;;;;;;;;6.70;66.10;;;;;;5165185;23;19975;-84
2023/12/25 11:53:40;;;;;;;;;;;6.80;65.90;;;;;;5144333;23;19984;-86
2023/12/25 11:56:00;;;;;;;;;;;6.70;65.80;;;;;;5143279;23;19999;-84
2023/12/25 11:58:19;;;;;;;;;;;6.80;66.50;;;;;;5140204;23;20204;-83
2023/12/25 12:00:38;;;;;;;;;;;6.80;65.50;;;;;;5161126;23;19968;-83
2023/12/25 12:02:57;;;;;;;;;;;6.80;66.10;;;;;;5140455;23;19991;-83
2023/12/25 12:05:16;;;;;;;;;;;6.80;65.00;;;;;;5138320;23;19915;-83
2023/12/25 12:07:35;;;;;;;;;;;6.80;64.90;;;;;;5140163;23;20006;-82
2023/12/25 12:09:55;;;;;;;;;;;6.90;65.60;;;;;;5139773;23;19915;-84
2023/12/25 12:12:14;;;;;;;;;;;6.80;64.90;;;;;;5139983;23;19911;-83
2023/12/25 12:14:33;;;;;;;;;;;6.90;64.60;;;;;;5163457;23;19907;-83
2023/12/25 12:16:53;;;;;;;;;;;6.80;64.50;;;;;;5165811;23;20266;-85
2023/12/25 12:19:13;;;;;;;;;;;6.80;64.30;;;;;;5142606;23;19937;-85
2023/12/25 12:21:32;;;;;;;;;;;6.80;64.40;;;;;;5142936;23;20002;-85
2023/12/25 12:23:52;;;;;;;;;;;6.90;64.60;;;;;;5166100;23;19958;-86
2023/12/25 12:26:15;;;;;;;;;;;7.00;64.60;;;;;;5142023;23;20295;-82
2023/12/25 12:28:34;;;;;;;;;;;6.90;64.60;;;;;;5141985;23;20028;-85
2023/12/25 12:30:54;;;;;;;;;;;6.90;65.20;;;;;;5142142;23;19948;-84
2023/12/25 12:33:13;;;;;;;;;;;6.80;64.60;;;;;;5166112;23;19938;-83
2023/12/25 12:35:33;;;;;;;;;;;6.90;64.90;;;;;;5168693;23;20033;-86
2023/12/25 12:37:53;;;;;;;;;;;6.90;65.00;;;;;;5165482;23;19931;-84
2023/12/25 12:40:12;;;;;;;;;;;6.90;65.10;;;;;;5167454;23;19914;-84
2023/12/25 12:42:32;;;;;;;;;;;6.90;65.00;;;;;;5165335;23;19981;-85
2023/12/25 12:44:51;;;;;;;;;;;6.90;64.90;;;;;;5166501;23;19922;-84
2023/12/25 12:47:10;;;;;;;;;;;6.90;64.70;;;;;;5141882;23;19919;-83
2023/12/25 12:49:30;;;;;;;;;;;6.90;65.70;;;;;;5142240;23;20446;-86
2023/12/25 12:51:49;;;;;;;;;;;6.90;64.80;;;;;;5163827;23;20335;-83
2023/12/25 12:54:08;;;;;;;;;;;6.80;64.60;;;;;;5142804;23;20071;-84
2023/12/25 12:56:31;;;;;;;;;;;6.90;64.80;;;;;;5165304;23;19914;-82
2023/12/25 12:58:50;;;;;;;;;;;6.90;64.50;;;;;;5165639;23;20282;-84
2023/12/25 13:01:09;;;;;;;;;;;6.90;64.50;;;;;;5139817;23;19911;-83
2023/12/25 13:03:28;;;;;;;;;;;6.90;64.40;;;;;;5163434;23;20005;-82
2023/12/25 13:05:48;;;;;;;;;;;6.90;64.40;;;;;;5162474;23;20525;-83
2023/12/25 13:08:07;;;;;;;;;;;6.90;65.30;;;;;;5163073;23;19942;-82
2023/12/25 13:10:26;;;;;;;;;;;6.90;64.50;;;;;;5162244;23;19978;-84
2023/12/25 13:12:45;;;;;;;;;;;6.80;65.40;;;;;;5140184;23;19919;-83
2023/12/25 13:15:05;;;;;;;;;;;6.90;64.90;;;;;;5161596;23;20183;-83
2023/12/25 13:17:24;;;;;;;;;;;6.90;65.00;;;;;;5163534;23;19957;-82
2023/12/25 13:19:43;;;;;;;;;;;6.90;65.10;;;;;;5164306;23;19914;-83
2023/12/25 13:22:04;;;;;;;;;;;6.90;65.50;;;;;;5166539;23;19910;-82
2023/12/25 13:24:24;;;;;;;;;;;6.80;65.50;;;;;;5140840;23;19915;-84
2023/12/25 13:26:43;;;;;;;;;;;6.90;65.80;;;;;;5140961;23;20517;-83
2023/12/25 13:29:03;;;;;;;;;;;6.90;66.00;;;;;;5165833;23;19968;-83
2023/12/25 13:31:22;;;;;;;;;;;6.90;66.20;;;;;;5165937;23;19918;-82
2023/12/25 13:33:43;;;;;;;;;;;6.90;66.20;;;;;;5165990;23;19918;-85
2023/12/25 13:36:02;;;;;;;;;;;6.90;66.20;;;;;;5144770;23;20355;-85
2023/12/25 13:38:21;;;;;;;;;;;6.90;66.30;;;;;;5166620;23;19914;-85
2023/12/25 13:40:41;;;;;;;;;;;6.90;65.90;;;;;;5169198;23;19995;-85
2023/12/25 13:43:00;;;;;;;;;;;6.90;66.70;;;;;;5143746;23;19969;-84
2023/12/25 13:45:20;;;;;;;;;;;6.80;66.10;;;;;;5144834;23;19910;-83
2023/12/25 13:47:39;;;;;;;;;;;6.90;65.10;;;;;;5166614;23;19919;-85
2023/12/25 13:50:00;;;;;;;;;;;6.90;65.40;;;;;;5167944;23;19915;-85
2023/12/25 13:52:19;;;;;;;;;;;6.90;65.10;;;;;;5145616;23;19943;-85
2023/12/25 13:54:38;;;;;;;;;;;6.90;65.20;;;;;;5166468;23;19973;-84